Time;durP1;ratioP1;P1;durP2;ratioP2;P2;SDS_P1;SDS_P2;PMS_P1;PMS_P2;Temp;Humidity;BMP_temperature;BMP_pressure;BME280_temperature;BME280_humidity;BME280_pressure;Samples;Min_cycle;Max_cycle;Signal;HPM_P1;HPM_P2
2023/03/02 00:01:48;;;;;;;21.95;9.40;;;;;;;-0.24;100.00;102256.28;5070385;28;20027;-70
2023/03/02 00:04:34;;;;;;;22.02;9.35;;;;;;;-0.21;100.00;102246.09;5070538;28;20040;-69
2023/03/02 00:07:03;;;;;;;22.58;9.15;;;;;;;-0.18;100.00;102254.13;5073219;28;20593;-66
2023/03/02 00:09:29;;;;;;;21.10;9.00;;;;;;;-0.28;100.00;102256.84;5073696;28;20070;-66
2023/03/02 00:11:55;;;;;;;22.33;9.32;;;;;;;-0.30;100.00;102263.66;5073813;28;20409;-69
2023/03/02 00:14:20;;;;;;;21.48;9.30;;;;;;;-0.40;100.00;102255.19;5073636;28;20364;-67
2023/03/02 00:16:46;;;;;;;21.98;9.52;;;;;;;-0.37;100.00;102263.19;5073700;28;20024;-70
2023/03/02 00:19:11;;;;;;;20.90;9.38;;;;;;;-0.42;100.00;102251.59;5073787;28;20132;-67
2023/03/02 00:21:36;;;;;;;22.30;9.75;;;;;;;-0.44;100.00;102247.06;5069303;28;20024;-66
2023/03/02 00:24:02;;;;;;;21.50;9.70;;;;;;;-0.48;100.00;102245.03;5073616;28;20033;-66
2023/03/02 00:26:27;;;;;;;22.08;9.43;;;;;;;-0.56;100.00;102252.28;5073511;28;20445;-66
2023/03/02 00:28:53;;;;;;;21.50;9.43;;;;;;;-0.54;100.00;102248.09;5073322;28;20031;-69
2023/03/02 00:31:18;;;;;;;22.02;9.63;;;;;;;-0.60;100.00;102245.94;5073257;28;20516;-69
2023/03/02 00:33:44;;;;;;;21.60;9.50;;;;;;;-0.59;100.00;102246.88;5073352;28;20079;-69
2023/03/02 00:36:17;;;;;;;21.60;9.50;;;;;;;-0.60;100.00;102245.94;5073256;28;20489;-68
2023/03/02 00:38:43;;;;;;;22.08;9.43;;;;;;;-0.62;100.00;102247.56;5069726;28;20033;-70
2023/03/02 00:41:11;;;;;;;22.05;9.60;;;;;;;-0.73;100.00;102253.66;5073330;28;20036;-66
2023/03/02 00:43:37;;;;;;;21.75;9.20;;;;;;;-0.64;100.00;102253.41;5072925;28;20029;-68
2023/03/02 00:46:17;;;;;;;21.67;9.38;;;;;;;-0.59;100.00;102257.28;5073115;28;20147;-73
2023/03/02 00:48:42;;;;;;;21.50;9.40;;;;;;;-0.60;100.00;102255.47;5069590;28;20064;-72
2023/03/02 00:51:09;;;;;;;22.20;9.90;;;;;;;-0.75;100.00;102258.75;5073154;28;20055;-70
2023/03/02 00:53:36;;;;;;;21.73;9.43;;;;;;;-0.80;100.00;102254.94;5072888;28;20467;-78
2023/03/02 00:56:02;;;;;;;22.55;9.68;;;;;;;-0.85;100.00;102257.97;5072954;28;20032;-68
2023/03/02 00:58:28;;;;;;;21.45;9.27;;;;;;;-0.86;100.00;102250.97;5073021;28;20024;-74
2023/03/02 01:00:53;;;;;;;21.92;9.55;;;;;;;-0.94;100.00;102251.31;5072767;28;20191;-72
2023/03/02 01:03:19;;;;;;;22.13;9.88;;;;;;;-0.95;100.00;102246.91;5072701;28;20541;-71
2023/03/02 01:05:44;;;;;;;22.55;10.02;;;;;;;-1.03;100.00;102248.03;5072971;28;20074;-68
2023/03/02 01:08:10;;;;;;;22.10;9.77;;;;;;;-1.05;100.00;102249.59;5073061;28;20082;-71
2023/03/02 01:10:37;;;;;;;22.35;9.40;;;;;;;-1.09;100.00;102242.41;5072764;28;20413;-69
2023/03/02 01:13:03;;;;;;;21.85;9.38;;;;;;;-1.16;100.00;102241.03;5072836;28;20024;-71
2023/03/02 01:15:28;;;;;;;20.98;9.40;;;;;;;-1.20;100.00;102233.81;5072182;28;20033;-76
2023/03/02 01:17:53;;;;;;;21.60;9.70;;;;;;;-1.22;100.00;102232.81;5072859;28;20036;-70
2023/03/02 01:20:19;;;;;;;22.05;9.77;;;;;;;-1.23;100.00;102229.28;5072714;28;20103;-75
2023/03/02 01:22:44;;;;;;;22.00;9.98;;;;;;;-1.20;100.00;102232.91;5072568;28;20056;-70
2023/03/02 01:25:12;;;;;;;22.67;10.10;;;;;;;-1.19;100.00;102229.50;5072806;28;20475;-68
2023/03/02 01:27:37;;;;;;;22.67;10.43;;;;;;;-1.22;100.00;102225.03;5072836;28;20483;-69
2023/03/02 01:30:03;;;;;;;22.10;9.93;;;;;;;-1.25;100.00;102225.69;5072733;28;20020;-73
2023/03/02 01:32:28;;;;;;;22.52;10.43;;;;;;;-1.21;100.00;102226.81;5071439;28;20150;-72
2023/03/02 01:34:54;;;;;;;21.67;10.10;;;;;;;-1.28;100.00;102219.34;5072412;28;20032;-73
2023/03/02 01:37:22;;;;;;;22.20;10.05;;;;;;;-1.22;100.00;102219.81;5072427;28;20070;-68
2023/03/02 01:39:50;;;;;;;22.05;10.32;;;;;;;-1.29;100.00;102223.66;5072523;28;20046;-70
2023/03/02 01:42:15;;;;;;;22.13;9.80;;;;;;;-1.27;100.00;102219.50;5072302;28;20379;-68
2023/03/02 01:44:49;;;;;;;23.27;10.52;;;;;;;-1.21;100.00;102221.63;5072459;28;20031;-69
2023/03/02 01:47:27;;;;;;;22.80;10.48;;;;;;;-1.28;100.00;102215.09;5069451;28;20033;-72
2023/03/02 01:50:19;;;;;;;23.02;10.27;;;;;;;-1.32;100.00;102213.03;5072477;28;20060;-70
2023/03/02 01:52:46;;;;;;;22.35;10.38;;;;;;;-1.27;100.00;102215.97;5066400;28;20048;-72
2023/03/02 01:55:15;;;;;;;22.65;10.40;;;;;;;-1.29;100.00;102212.38;5072501;28;20150;-70
2023/03/02 01:57:45;;;;;;;22.90;10.30;;;;;;;-1.26;100.00;102210.00;5068492;28;20383;-69
2023/03/02 02:00:14;;;;;;;22.15;10.38;;;;;;;-1.29;100.00;102207.19;5068515;28;20067;-68
2023/03/02 02:02:41;;;;;;;23.08;10.82;;;;;;;-1.35;100.00;102204.16;5068511;28;20371;-68
2023/03/02 02:05:18;;;;;;;22.77;10.23;;;;;;;-1.34;100.00;102204.25;5072223;28;20020;-68
2023/03/02 02:07:43;;;;;;;22.75;10.20;;;;;;;-1.36;100.00;102204.94;5068786;28;20055;-68
2023/03/02 02:10:10;;;;;;;22.98;10.68;;;;;;;-1.41;100.00;102199.41;5072531;28;20439;-68
2023/03/02 02:12:35;;;;;;;23.38;11.38;;;;;;;-1.39;100.00;102199.50;5072327;28;20379;-69
2023/03/02 02:15:01;;;;;;;23.35;10.95;;;;;;;-1.44;100.00;102202.66;5072086;28;20039;-68
2023/03/02 02:17:28;;;;;;;23.40;10.80;;;;;;;-1.48;100.00;102205.81;5072240;28;20502;-68
2023/03/02 02:20:06;;;;;;;23.27;11.00;;;;;;;-1.55;100.00;102205.25;5071962;28;20105;-68
2023/03/02 02:23:10;;;;;;;23.10;10.95;;;;;;;-1.58;100.00;102213.69;5071800;28;20085;-68
2023/03/02 02:25:35;;;;;;;24.55;10.68;;;;;;;-1.59;100.00;102204.09;5069078;28;20086;-68
2023/03/02 02:28:08;;;;;;;23.15;11.10;;;;;;;-1.68;100.00;102203.41;5074249;28;20025;-68
2023/03/02 02:30:36;;;;;;;22.70;10.95;;;;;;;-1.71;100.00;102200.59;5075542;28;20034;-68
2023/03/02 02:33:04;;;;;;;23.25;11.15;;;;;;;-1.80;100.00;102199.09;5075796;28;20081;-69
2023/03/02 02:35:33;;;;;;;23.92;11.90;;;;;;;-1.90;100.00;102201.78;5075555;28;20028;-68
2023/03/02 02:38:05;;;;;;;22.88;11.57;;;;;;;-1.89;100.00;102195.81;5075369;28;20031;-68
2023/03/02 02:40:48;;;;;;;23.70;11.73;;;;;;;-1.87;100.00;102193.34;5075721;28;20035;-69
2023/03/02 02:43:17;;;;;;;24.90;12.27;;;;;;;-1.90;100.00;102191.41;5072245;28;20386;-68
2023/03/02 02:45:44;;;;;;;24.85;12.80;;;;;;;-1.99;100.00;102183.81;5075859;28;20027;-69
2023/03/02 02:48:14;;;;;;;26.48;13.18;;;;;;;-2.05;100.00;102183.38;5071438;28;20039;-68
2023/03/02 02:50:41;;;;;;;25.10;13.15;;;;;;;-2.05;100.00;102182.44;5071365;28;20029;-68
2023/03/02 02:53:20;;;;;;;25.05;13.13;;;;;;;-2.11;100.00;102182.91;5075319;28;20045;-68
2023/03/02 02:55:49;;;;;;;25.67;13.77;;;;;;;-2.14;100.00;102180.03;5072188;28;20103;-68
2023/03/02 02:58:32;;;;;;;26.92;14.35;;;;;;;-2.20;100.00;102177.91;5075045;28;20052;-69
2023/03/02 03:00:59;;;;;;;26.90;14.30;;;;;;;-2.21;100.00;102188.13;5074954;28;20032;-68
2023/03/02 03:03:34;;;;;;;27.33;14.68;;;;;;;-2.29;100.00;102187.53;5074852;28;20036;-68
2023/03/02 03:06:03;;;;;;;27.92;15.48;;;;;;;-2.23;100.00;102188.00;5075166;28;20181;-68
2023/03/02 03:08:58;;;;;;;29.20;16.52;;;;;;;-2.28;100.00;102189.34;5074785;28;20030;-68
2023/03/02 03:11:30;;;;;;;29.35;16.90;;;;;;;-2.29;100.00;102187.53;5062216;28;20051;-68
2023/03/02 03:14:09;;;;;;;30.40;16.90;;;;;;;-2.31;100.00;102189.13;5074735;28;20028;-68
2023/03/02 03:16:35;;;;;;;31.80;18.42;;;;;;;-2.32;100.00;102192.50;5074761;28;20032;-68
2023/03/02 03:19:23;;;;;;;32.20;18.33;;;;;;;-2.33;100.00;102190.69;5074667;28;20077;-68
2023/03/02 03:21:51;;;;;;;31.45;18.80;;;;;;;-2.36;100.00;102186.19;5071840;28;20463;-68
2023/03/02 03:24:17;;;;;;;33.15;19.73;;;;;;;-2.42;100.00;102179.59;5074669;28;20403;-68
2023/03/02 03:26:43;;;;;;;33.50;20.27;;;;;;;-2.41;100.00;102176.25;5074546;28;20028;-68
2023/03/02 03:29:10;;;;;;;34.85;21.85;;;;;;;-2.41;100.00;102181.41;5070442;28;20438;-68
2023/03/02 03:31:36;;;;;;;35.08;22.50;;;;;;;-2.46;100.00;102178.47;5074921;28;20352;-68
2023/03/02 03:34:02;;;;;;;36.47;22.83;;;;;;;-2.49;100.00;102179.13;5074420;28;20044;-69
2023/03/02 03:36:29;;;;;;;36.78;22.60;;;;;;;-2.47;100.00;102167.19;5074410;28;20025;-68
2023/03/02 03:38:55;;;;;;;38.97;23.88;;;;;;;-2.45;100.00;102167.31;5073827;28;20040;-69
2023/03/02 03:41:21;;;;;;;39.47;24.90;;;;;;;-2.53;100.00;102166.72;5074256;28;20036;-68
2023/03/02 03:43:47;;;;;;;39.42;25.52;;;;;;;-2.52;100.00;102173.72;5074119;28;20605;-68
2023/03/02 03:46:12;;;;;;;41.42;26.55;;;;;;;-2.48;100.00;102175.75;5074490;28;20024;-69
2023/03/02 03:48:38;;;;;;;41.63;26.77;;;;;;;-2.49;100.00;102171.38;5074104;28;20085;-68
2023/03/02 03:51:04;;;;;;;43.08;27.52;;;;;;;-2.47;100.00;102177.56;5074018;28;20032;-68
2023/03/02 03:53:29;;;;;;;42.67;27.50;;;;;;;-2.42;100.00;102175.31;5074247;28;20028;-68
2023/03/02 03:55:56;;;;;;;44.47;27.75;;;;;;;-2.44;100.00;102183.78;5074027;28;20028;-69
2023/03/02 03:58:22;;;;;;;43.65;28.17;;;;;;;-2.40;100.00;102180.63;5073979;28;20029;-70
2023/03/02 04:00:48;;;;;;;44.75;29.30;;;;;;;-2.48;100.00;102187.78;5074016;28;20094;-68
2023/03/02 04:03:14;;;;;;;45.17;28.90;;;;;;;-2.48;100.00;102180.03;5073780;28;20037;-68
2023/03/02 04:05:40;;;;;;;46.05;29.50;;;;;;;-2.47;100.00;102182.72;5070214;28;20071;-68
2023/03/02 04:08:06;;;;;;;47.33;30.13;;;;;;;-2.46;100.00;102179.38;5073959;28;20029;-68
2023/03/02 04:10:33;;;;;;;47.20;30.52;;;;;;;-2.46;100.00;102173.28;5073650;28;20562;-71
2023/03/02 04:12:58;;;;;;;45.97;31.45;;;;;;;-2.40;100.00;102183.19;5072816;28;20074;-73
2023/03/02 04:15:24;;;;;;;47.85;30.73;;;;;;;-2.41;100.00;102176.25;5073538;28;20414;-68
2023/03/02 04:17:49;;;;;;;46.90;30.02;;;;;;;-2.43;100.00;102177.78;5073588;28;20040;-70
2023/03/02 04:20:16;;;;;;;47.42;30.90;;;;;;;-2.46;100.00;102173.28;5073689;28;20028;-71
2023/03/02 04:22:43;;;;;;;46.38;30.40;;;;;;;-2.45;100.00;102182.84;5073446;28;20082;-70
2023/03/02 04:25:09;;;;;;;46.95;30.88;;;;;;;-2.44;100.00;102168.22;5073340;28;20095;-67
2023/03/02 04:27:35;;;;;;;46.65;30.02;;;;;;;-2.44;100.00;102179.50;5073560;28;20024;-67
2023/03/02 04:30:00;;;;;;;48.38;30.88;;;;;;;-2.44;100.00;102176.91;5073330;28;20442;-68
2023/03/02 04:32:25;;;;;;;48.53;31.13;;;;;;;-2.49;100.00;102173.94;5073224;28;20036;-69
2023/03/02 04:34:51;;;;;;;46.88;30.30;;;;;;;-2.53;100.00;102177.06;5073476;28;20033;-67
2023/03/02 04:37:16;;;;;;;47.50;31.00;;;;;;;-2.58;100.00;102178.38;5071933;28;20060;-67
2023/03/02 04:39:44;;;;;;;46.55;30.77;;;;;;;-2.60;100.00;102181.66;5073029;28;20127;-67
2023/03/02 04:42:10;;;;;;;47.67;31.25;;;;;;;-2.60;100.00;102179.06;5069428;28;20028;-69
2023/03/02 04:44:35;;;;;;;44.65;29.10;;;;;;;-2.58;100.00;102180.97;5073619;28;20024;-68
2023/03/02 04:47:00;;;;;;;47.58;30.40;;;;;;;-2.60;100.00;102176.50;5074119;28;20036;-68
2023/03/02 04:49:26;;;;;;;46.25;29.70;;;;;;;-2.61;100.00;102180.75;5091191;28;20025;-69
2023/03/02 04:51:51;;;;;;;47.22;29.63;;;;;;;-2.63;100.00;102177.13;5093901;28;20044;-71
2023/03/02 04:54:23;;;;;;;45.95;28.90;;;;;;;-2.60;100.00;102173.91;5093809;28;20029;-70
2023/03/02 04:56:50;;;;;;;47.35;30.00;;;;;;;-2.60;100.00;102179.06;5087246;28;20098;-69
2023/03/02 04:59:17;;;;;;;45.33;29.30;;;;;;;-2.64;100.00;102177.91;5084535;28;20054;-69
2023/03/02 05:01:43;;;;;;;45.20;28.15;;;;;;;-2.67;100.00;102170.78;5084926;28;20029;-68
2023/03/02 05:04:09;;;;;;;46.15;28.35;;;;;;;-2.66;100.00;102179.50;5083072;28;20475;-68
2023/03/02 05:06:35;;;;;;;46.33;29.65;;;;;;;-2.69;100.00;102174.06;5079466;28;20115;-69
2023/03/02 05:09:00;;;;;;;45.78;28.33;;;;;;;-2.71;100.00;102176.53;5071745;28;20064;-68
2023/03/02 05:11:26;;;;;;;46.67;29.40;;;;;;;-2.71;100.00;102183.38;5072946;28;20117;-68
2023/03/02 05:13:57;;;;;;;45.38;29.40;;;;;;;-2.77;100.00;102185.50;5072655;28;20036;-69
2023/03/02 05:16:27;;;;;;;47.92;29.27;;;;;;;-2.83;100.00;102185.91;5072552;28;20052;-68
2023/03/02 05:18:53;;;;;;;45.65;29.60;;;;;;;-2.87;100.00;102195.13;5073093;28;20364;-68
2023/03/02 05:21:19;;;;;;;47.95;30.23;;;;;;;-2.86;100.00;102190.84;5072527;28;20028;-69
2023/03/02 05:23:45;;;;;;;51.75;31.80;;;;;;;-2.87;100.00;102191.63;5072520;28;20501;-68
2023/03/02 05:26:11;;;;;;;51.38;31.95;;;;;;;-2.89;100.00;102191.50;5068763;28;20025;-68
2023/03/02 05:28:37;;;;;;;49.20;31.55;;;;;;;-2.89;100.00;102185.44;5072392;28;20155;-68
2023/03/02 05:31:02;;;;;;;50.97;32.38;;;;;;;-2.94;100.00;102194.50;5072439;28;20033;-75
2023/03/02 05:33:28;;;;;;;50.95;32.33;;;;;;;-3.04;100.00;102186.00;5072671;28;20036;-72
2023/03/02 05:35:54;;;;;;;52.33;33.25;;;;;;;-3.06;100.00;102187.56;5072468;28;20028;-69
2023/03/02 05:38:20;;;;;;;51.63;32.22;;;;;;;-3.07;100.00;102190.00;5072179;28;20051;-71
2023/03/02 05:40:46;;;;;;;53.90;33.95;;;;;;;-3.08;100.00;102194.28;5072653;28;20116;-76
2023/03/02 05:43:15;;;;;;;55.28;34.80;;;;;;;-3.08;100.00;102189.09;5072227;28;20394;-72
2023/03/02 05:45:41;;;;;;;54.20;33.70;;;;;;;-3.11;100.00;102188.88;5068402;28;20029;-77
2023/03/02 05:48:06;;;;;;;55.63;34.78;;;;;;;-3.07;100.00;102187.41;5072702;28;20037;-76
2023/03/02 05:50:32;;;;;;;57.70;35.45;;;;;;;-3.11;100.00;102195.72;5072232;28;20479;-70
2023/03/02 05:52:59;;;;;;;54.65;34.40;;;;;;;-3.08;100.00;102183.03;5072220;28;20029;-71
2023/03/02 05:55:24;;;;;;;56.83;35.58;;;;;;;-3.12;100.00;102186.16;5071141;28;20028;-68
2023/03/02 05:57:50;;;;;;;59.03;35.92;;;;;;;-3.16;100.00;102185.91;5072253;28;20023;-70
2023/03/02 06:00:17;;;;;;;57.13;35.05;;;;;;;-3.22;100.00;102185.41;5072261;28;20024;-72
2023/03/02 06:02:42;;;;;;;58.05;35.25;;;;;;;-3.24;100.00;102189.53;5075739;28;20046;-69
2023/03/02 06:05:16;;;;;;;57.00;35.72;;;;;;;-3.23;100.00;102187.84;5076151;28;20526;-74
2023/03/02 06:07:43;;;;;;;58.42;35.83;;;;;;;-3.25;100.00;102179.97;5072139;28;20554;-72
2023/03/02 06:10:10;;;;;;;59.40;36.20;;;;;;;-3.28;100.00;102178.81;5076207;28;20052;-69
2023/03/02 06:12:36;;;;;;;57.88;35.40;;;;;;;-3.29;100.00;102189.94;5075870;28;20436;-73
2023/03/02 06:15:03;;;;;;;60.97;35.83;;;;;;;-3.32;100.00;102182.81;5075784;28;20127;-70
2023/03/02 06:17:28;;;;;;;59.53;36.70;;;;;;;-3.35;100.00;102178.34;5075985;28;20428;-68
2023/03/02 06:19:53;;;;;;;61.95;37.03;;;;;;;-3.35;100.00;102180.91;5075832;28;20029;-74
2023/03/02 06:22:19;;;;;;;62.20;37.00;;;;;;;-3.31;100.00;102176.88;5075760;28;20040;-73
2023/03/02 06:24:44;;;;;;;62.53;37.22;;;;;;;-3.30;100.00;102185.56;5075875;28;20471;-70
2023/03/02 06:27:11;;;;;;;63.63;37.92;;;;;;;-3.27;100.00;102191.00;5075558;28;20056;-72
2023/03/02 06:29:36;;;;;;;63.83;37.60;;;;;;;-3.25;100.00;102189.41;5075558;28;20119;-71
2023/03/02 06:32:02;;;;;;;64.90;37.17;;;;;;;-3.20;100.00;102189.03;5075727;28;20118;-70
2023/03/02 06:34:28;;;;;;;65.97;39.55;;;;;;;-3.18;100.00;102196.91;5075541;28;20028;-68
2023/03/02 06:36:54;;;;;;;64.70;38.03;;;;;;;-3.16;100.00;102192.75;5075700;28;20036;-71
2023/03/02 06:39:20;;;;;;;61.83;37.22;;;;;;;-3.16;100.00;102203.09;5075283;28;20052;-71
2023/03/02 06:41:46;;;;;;;65.88;38.33;;;;;;;-3.12;100.00;102201.69;5075370;28;20086;-72
2023/03/02 06:44:12;;;;;;;66.95;38.85;;;;;;;-3.12;100.00;102206.84;5071576;28;20035;-71
2023/03/02 06:46:38;;;;;;;65.22;37.03;;;;;;;-3.09;100.00;102197.63;5072996;28;20057;-70
2023/03/02 06:49:04;;;;;;;65.80;37.78;;;;;;;-3.02;100.00;102210.31;5071924;28;20029;-69
2023/03/02 06:51:30;;;;;;;66.57;38.28;;;;;;;-2.96;100.00;102206.41;5074622;28;20029;-71
2023/03/02 06:53:56;;;;;;;65.47;37.95;;;;;;;-2.92;100.00;102205.88;5069253;28;20100;-71
2023/03/02 06:56:22;;;;;;;64.15;38.00;;;;;;;-2.88;100.00;102208.84;5076358;28;20449;-72
2023/03/02 06:58:48;;;;;;;65.28;38.05;;;;;;;-2.84;100.00;102204.78;5072061;28;20356;-70
2023/03/02 07:01:14;;;;;;;61.67;36.88;;;;;;;-2.80;100.00;102212.03;5068025;28;20108;-71
2023/03/02 07:03:39;;;;;;;63.90;36.65;;;;;;;-2.75;100.00;102212.41;5076671;28;20127;-71
2023/03/02 07:06:05;;;;;;;67.05;36.95;;;;;;;-2.73;100.00;102218.63;5067273;28;20035;-70
2023/03/02 07:08:30;;;;;;;64.97;37.92;;;;;;;-2.67;100.00;102211.34;5070694;28;20044;-71
2023/03/02 07:10:56;;;;;;;60.85;36.78;;;;;;;-2.64;100.00;102217.69;5072093;28;20032;-71
2023/03/02 07:13:21;;;;;;;58.67;35.83;;;;;;;-2.58;100.00;102214.63;5075067;28;20039;-70
2023/03/02 07:15:46;;;;;;;60.85;36.75;;;;;;;-2.55;100.00;102221.75;5067421;28;20040;-69
2023/03/02 07:18:12;;;;;;;60.33;35.97;;;;;;;-2.48;100.00;102222.34;5067299;28;20467;-69
2023/03/02 07:20:38;;;;;;;57.80;35.35;;;;;;;-2.39;100.00;102218.69;5068736;28;20040;-68
2023/03/02 07:23:04;;;;;;;56.92;34.20;;;;;;;-2.32;100.00;102221.00;5076349;28;20044;-70
2023/03/02 07:25:30;;;;;;;58.05;34.72;;;;;;;-2.19;100.00;102225.44;5071663;28;20032;-70
2023/03/02 07:27:55;;;;;;;56.35;34.00;;;;;;;-2.04;100.00;102218.88;5074913;28;20497;-72
2023/03/02 07:30:21;;;;;;;55.78;33.20;;;;;;;-1.91;100.00;102223.28;5067401;28;20024;-70
2023/03/02 07:32:47;;;;;;;54.58;32.40;;;;;;;-1.82;100.00;102221.41;5072135;28;20130;-71
2023/03/02 07:35:13;;;;;;;55.40;33.95;;;;;;;-1.73;100.00;102217.69;5066142;28;20036;-70
2023/03/02 07:37:38;;;;;;;54.78;33.45;;;;;;;-1.60;100.00;102223.94;5072620;28;20021;-71
2023/03/02 07:40:05;;;;;;;52.83;32.63;;;;;;;-1.49;100.00;102221.25;5071345;28;20127;-70
2023/03/02 07:42:31;;;;;;;52.38;32.00;;;;;;;-1.36;100.00;102223.09;5064864;28;20052;-69
2023/03/02 07:44:56;;;;;;;54.80;32.67;;;;;;;-1.30;100.00;102223.53;5064968;28;20098;-70
2023/03/02 07:47:22;;;;;;;51.10;32.05;;;;;;;-1.26;100.00;102222.97;5073548;28;20029;-70
2023/03/02 07:49:47;;;;;;;52.28;32.20;;;;;;;-1.17;100.00;102212.38;5077044;28;20028;-71
2023/03/02 07:52:13;;;;;;;49.95;30.88;;;;;;;-1.08;100.00;102221.75;5070552;28;20119;-71
2023/03/02 07:54:38;;;;;;;53.13;31.27;;;;;;;-0.96;100.00;102221.75;5072215;28;20087;-70
2023/03/02 07:57:04;;;;;;;53.33;31.83;;;;;;;-0.82;100.00;102221.84;5064628;28;20028;-70
2023/03/02 07:59:29;;;;;;;49.42;30.02;;;;;;;-0.66;100.00;102219.53;5065174;28;20020;-70
2023/03/02 08:01:56;;;;;;;52.47;30.33;;;;;;;-0.45;100.00;102227.06;5075643;28;20039;-69
2023/03/02 08:04:22;;;;;;;46.92;28.52;;;;;;;-0.30;100.00;102222.06;5066613;28;20030;-69
2023/03/02 08:06:47;;;;;;;46.78;28.27;;;;;;;-0.10;100.00;102213.97;5069206;28;20545;-69
2023/03/02 08:09:13;;;;;;;44.58;26.92;;;;;;;0.08;100.00;102218.63;5076085;28;20021;-72
2023/03/02 08:11:39;;;;;;;44.88;27.38;;;;;;;0.20;100.00;102221.16;5064488;28;20100;-69
2023/03/02 08:14:04;;;;;;;43.53;27.20;;;;;;;0.38;100.00;102218.91;5064027;28;20136;-69
2023/03/02 08:16:30;;;;;;;45.28;26.90;;;;;;;0.45;100.00;102222.06;5065145;28;20116;-69
2023/03/02 08:18:56;;;;;;;42.83;26.15;;;;;;;0.57;100.00;102221.97;5064648;28;20379;-69
2023/03/02 08:21:23;;;;;;;44.28;26.92;;;;;;;0.70;100.00;102218.50;5069087;28;20024;-69
2023/03/02 08:23:49;;;;;;;41.92;25.90;;;;;;;0.87;100.00;102222.19;5064400;28;20043;-70
2023/03/02 08:26:16;;;;;;;42.60;25.35;;;;;;;0.90;100.00;102221.50;5063011;28;20474;-70
2023/03/02 08:28:42;;;;;;;42.78;26.38;;;;;;;1.11;100.00;102224.59;5068396;28;20486;-70
2023/03/02 08:31:08;;;;;;;42.00;25.15;;;;;;;1.28;100.00;102221.38;5064060;28;20048;-73
2023/03/02 08:33:35;;;;;;;41.08;24.83;;;;;;;1.41;100.00;102216.94;5069254;28;20032;-72
2023/03/02 08:36:01;;;;;;;41.85;24.88;;;;;;;1.45;100.00;102213.72;5068778;28;20023;-73
2023/03/02 08:38:28;;;;;;;39.65;24.60;;;;;;;1.50;100.00;102227.94;5073203;28;20032;-72
2023/03/02 08:40:54;;;;;;;38.67;23.13;;;;;;;1.46;100.00;102218.16;5070257;28;20086;-73
2023/03/02 08:43:20;;;;;;;40.75;24.42;;;;;;;1.53;100.00;102217.69;5071669;28;20041;-72
2023/03/02 08:45:53;;;;;;;38.88;23.65;;;;;;;1.68;100.00;102218.69;5067715;28;20035;-73
2023/03/02 08:48:20;;;;;;;39.95;23.30;;;;;;;1.80;100.00;102222.84;5075375;28;20032;-72
2023/03/02 08:51:13;;;;;;;38.03;22.90;;;;;;;2.03;100.00;102219.94;5068184;28;20028;-72
2023/03/02 08:53:42;;;;;;;38.28;22.40;;;;;;;2.28;100.00;102226.66;5074251;28;20036;-72
2023/03/02 08:56:24;;;;;;;36.88;21.35;;;;;;;2.54;100.00;102216.88;5065411;28;20023;-72
2023/03/02 08:58:52;;;;;;;34.30;20.25;;;;;;;2.74;100.00;102210.22;5073123;28;20134;-72
2023/03/02 09:01:20;;;;;;;35.90;21.13;;;;;;;2.91;100.00;102209.47;5072857;28;20029;-72
2023/03/02 09:03:46;;;;;;;35.63;21.15;;;;;;;3.20;100.00;102212.81;5072853;28;20107;-72
2023/03/02 09:06:11;;;;;;;35.00;19.88;;;;;;;3.47;100.00;102205.63;5073100;28;20174;-72
2023/03/02 09:08:38;;;;;;;32.58;19.05;;;;;;;3.63;100.00;102199.50;5072850;28;20040;-73
2023/03/02 09:11:03;;;;;;;33.65;19.73;;;;;;;3.93;100.00;102202.00;5072688;28;20028;-68
2023/03/02 09:13:29;;;;;;;33.92;19.95;;;;;;;4.22;100.00;102204.31;5073183;28;20475;-67
2023/03/02 09:15:55;;;;;;;33.65;19.45;;;;;;;4.38;100.00;102204.28;5072675;28;20029;-67
2023/03/02 09:18:20;;;;;;;32.00;18.77;;;;;;;4.47;100.00;102201.25;5072605;28;20463;-65
2023/03/02 09:20:49;;;;;;;32.22;18.65;;;;;;;4.63;100.00;102203.84;5072741;28;20539;-66
2023/03/02 09:23:15;;;;;;;31.92;18.77;;;;;;;4.56;100.00;102206.97;5072639;28;20032;-67
2023/03/02 09:25:40;;;;;;;34.20;19.27;;;;;;;4.56;100.00;102206.03;5071262;28;20059;-64
2023/03/02 09:28:05;;;;;;;31.45;18.33;;;;;;;4.75;100.00;102206.16;5071418;28;20455;-74
2023/03/02 09:30:31;;;;;;;32.50;18.80;;;;;;;5.20;100.00;102197.88;5070988;28;20482;-71
2023/03/02 09:32:56;;;;;;;32.67;18.27;;;;;;;5.46;100.00;102193.84;5070544;28;20112;-72
2023/03/02 09:35:22;;;;;;;31.75;18.38;;;;;;;5.68;100.00;102197.44;5070785;28;20025;-70
2023/03/02 09:37:47;;;;;;;31.42;18.08;;;;;;;5.54;100.00;102192.47;5061657;28;20033;-71
2023/03/02 09:40:22;;;;;;;31.65;17.27;;;;;;;5.90;100.00;102197.59;5061793;28;20053;-75
2023/03/02 09:43:04;;;;;;;30.80;17.60;;;;;;;5.91;100.00;102194.16;5071771;28;20394;-73
2023/03/02 09:45:53;;;;;;;30.33;16.67;;;;;;;6.36;100.00;102192.59;5068713;28;20029;-76
2023/03/02 09:48:27;;;;;;;30.65;17.13;;;;;;;6.35;100.00;102198.69;5063282;28;20035;-76
2023/03/02 09:51:19;;;;;;;30.80;17.30;;;;;;;6.68;99.43;102185.19;5065480;28;20036;-72
2023/03/02 09:54:02;;;;;;;29.97;16.43;;;;;;;6.80;93.96;102186.59;5063269;28;20025;-73
2023/03/02 09:56:27;;;;;;;29.83;16.52;;;;;;;7.19;78.41;102187.25;5067491;28;20057;-73
2023/03/02 09:59:00;;;;;;;29.27;16.30;;;;;;;7.75;65.17;102190.28;5063888;28;20063;-73
2023/03/02 10:01:38;;;;;;;30.60;16.98;;;;;;;8.27;60.38;102189.53;5065545;28;20352;-67
2023/03/02 10:04:24;;;;;;;27.42;14.88;;;;;;;8.59;54.00;102181.91;5064493;28;20033;-69
2023/03/02 10:07:07;;;;;;;27.35;15.23;;;;;;;8.58;51.32;102182.72;5068147;28;20032;-68
2023/03/02 10:09:33;;;;;;;28.27;15.80;;;;;;;9.15;51.39;102184.56;5069371;28;20039;-71
2023/03/02 10:12:06;;;;;;;27.95;15.07;;;;;;;10.00;49.69;102184.44;5065655;28;20032;-68
2023/03/02 10:15:03;;;;;;;29.10;15.25;;;;;;;10.46;47.28;102185.72;5066299;28;20033;-68
2023/03/02 10:17:57;;;;;;;27.25;14.63;;;;;;;10.51;48.60;102187.59;5065576;28;20123;-70
2023/03/02 10:20:34;;;;;;;27.52;15.20;;;;;;;10.99;45.48;102187.94;5061608;28;20035;-68
2023/03/02 10:23:16;;;;;;;25.55;13.10;;;;;;;10.42;42.48;102186.47;5063516;28;20036;-68
2023/03/02 10:25:47;;;;;;;25.48;13.05;;;;;;;10.60;42.91;102187.81;5062248;28;20021;-69
2023/03/02 10:28:15;;;;;;;26.00;12.77;;;;;;;11.04;41.77;102185.38;5071182;28;20021;-70
2023/03/02 10:30:42;;;;;;;25.73;12.93;;;;;;;11.49;40.35;102189.94;5063491;28;20487;-71
2023/03/02 10:33:12;;;;;;;26.13;12.98;;;;;;;12.14;38.98;102185.09;5072206;28;20028;-70
2023/03/02 10:35:47;;;;;;;25.17;12.77;;;;;;;12.60;38.60;102187.72;5069433;28;20028;-72
2023/03/02 10:38:16;;;;;;;25.48;13.02;;;;;;;12.90;37.64;102184.66;5075521;28;20099;-72
2023/03/02 10:40:49;;;;;;;24.73;13.07;;;;;;;13.31;36.55;102167.56;5066391;28;20083;-72
2023/03/02 10:43:38;;;;;;;25.27;12.70;;;;;;;13.54;37.66;102176.78;5068577;28;20111;-72
2023/03/02 10:46:07;;;;;;;24.70;12.70;;;;;;;13.36;35.78;102171.22;5063707;28;20107;-72
2023/03/02 10:48:45;;;;;;;24.52;12.90;;;;;;;13.48;35.22;102171.38;5074021;28;20451;-72
2023/03/02 10:51:20;;;;;;;24.88;12.77;;;;;;;14.03;35.99;102163.19;5072595;28;20119;-72
2023/03/02 10:53:46;;;;;;;24.55;12.55;;;;;;;13.41;34.52;102158.88;5075788;28;20021;-72
2023/03/02 10:56:30;;;;;;;24.10;11.70;;;;;;;12.96;36.09;102170.59;5075622;28;20483;-72
2023/03/02 10:59:01;;;;;;;23.67;12.13;;;;;;;13.22;35.30;102161.28;5074651;28;20033;-72
2023/03/02 11:01:28;;;;;;;24.67;12.45;;;;;;;13.80;34.78;102160.25;5075584;28;20035;-71
2023/03/02 11:03:59;;;;;;;25.58;13.38;;;;;;;14.15;34.68;102166.84;5074681;28;20122;-69
2023/03/02 11:06:25;;;;;;;25.48;13.48;;;;;;;14.87;34.49;102169.28;5069326;28;20443;-71
2023/03/02 11:09:02;;;;;;;25.25;13.20;;;;;;;15.91;34.14;102163.66;5072024;28;20475;-72
2023/03/02 11:11:28;;;;;;;24.73;13.05;;;;;;;16.42;32.27;102155.78;5069185;28;20388;-71